createdAt,value
2023-05-19T00:16:30.273Z,65.57
2023-05-19T00:31:33.483Z,66.20
2023-05-19T00:46:37.261Z,66.48
2023-05-19T01:01:40.159Z,66.76
2023-05-19T01:17:15.204Z,67.20
2023-05-19T01:32:22.557Z,67.37
2023-05-19T01:47:25.852Z,67.94
2023-05-19T02:02:37.569Z,68.60
2023-05-19T02:17:57.529Z,69.18
2023-05-19T02:33:14.532Z,69.58
2023-05-19T02:48:31.648Z,69.95
2023-05-19T03:03:34.707Z,70.16
2023-05-19T03:18:38.384Z,70.20
2023-05-19T03:33:41.265Z,70.52
2023-05-19T03:48:44.738Z,71.02
2023-05-19T04:03:47.579Z,71.30
2023-05-19T04:19:05.753Z,71.42
2023-05-19T04:34:09.493Z,70.86
2023-05-19T04:49:26.554Z,70.31
2023-05-19T05:04:29.348Z,69.16
2023-05-19T05:19:32.893Z,68.15
2023-05-19T05:34:50.856Z,68.16
2023-05-19T05:49:53.787Z,67.81
2023-05-19T06:04:56.697Z,67.99
2023-05-19T06:19:59.921Z,68.07
2023-05-19T06:35:03.101Z,67.75
2023-05-19T06:50:06.472Z,67.66
2023-05-19T07:05:10.070Z,67.51
2023-05-19T07:20:13.624Z,67.44
2023-05-19T07:35:16.520Z,67.46
2023-05-19T07:50:33.832Z,67.21
2023-05-19T08:05:36.870Z,67.06
2023-05-19T08:20:39.978Z,67.08
2023-05-19T08:36:00.288Z,66.79
2023-05-19T08:51:30.738Z,65.83
2023-05-19T09:06:33.400Z,64.94
2023-05-19T09:22:03.282Z,64.30
2023-05-19T09:37:06.154Z,63.77
2023-05-19T09:52:10.011Z,62.49
2023-05-19T10:07:15.315Z,61.53
2023-05-19T10:22:18.727Z,60.90
2023-05-19T10:37:52.926Z,60.46
2023-05-19T10:52:56.190Z,61.21
2023-05-19T11:08:07.496Z,61.66
2023-05-19T11:23:26.658Z,61.20
2023-05-19T11:38:29.612Z,61.18
2023-05-19T11:53:35.538Z,61.66
2023-05-19T12:08:38.679Z,61.66
2023-05-19T12:23:56.333Z,61.07
2023-05-19T12:38:59.090Z,60.92
2023-05-19T12:54:04.840Z,60.98
2023-05-19T13:09:22.301Z,60.75
2023-05-19T13:24:25.334Z,61.22
2023-05-19T13:39:28.241Z,62.06
2023-05-19T13:54:30.866Z,62.35
2023-05-19T14:09:33.772Z,62.47
2023-05-19T14:24:36.951Z,63.12
2023-05-19T14:39:54.857Z,64.47
2023-05-19T14:54:58.206Z,64.84
2023-05-19T15:10:01.584Z,65.17
2023-05-19T15:25:06.041Z,66.12
2023-05-19T15:40:10.467Z,66.59
2023-05-19T15:55:39.513Z,66.99
2023-05-19T16:10:42.580Z,67.38
2023-05-19T16:25:47.075Z,67.87
2023-05-19T16:40:50.372Z,68.03
2023-05-19T16:55:53.838Z,68.36
2023-05-19T17:10:59.125Z,68.55
2023-05-19T17:26:03.149Z,69.08
2023-05-19T17:56:45.228Z,70.07
2023-05-19T18:11:48.152Z,70.40
2023-05-19T18:27:06.142Z,70.60
2023-05-19T18:42:09.140Z,70.65
2023-05-19T18:57:13.332Z,71.06
2023-05-19T20:02:01.808Z,72.62
2023-05-19T20:17:06.844Z,72.58
2023-05-19T20:32:10.883Z,72.99
2023-05-19T20:47:15.015Z,73.52
2023-05-19T21:02:20.345Z,73.82
2023-05-19T21:17:24.064Z,74.17
2023-05-19T21:32:29.364Z,74.47
2023-05-19T21:47:32.080Z,74.73
2023-05-19T22:02:40.282Z,74.68
2023-05-19T22:17:43.626Z,74.72
2023-05-19T22:32:46.713Z,75.59
2023-05-19T22:47:50.266Z,75.97
2023-05-19T23:37:55.301Z,77.27
2023-05-19T23:52:58.155Z,77.73
